Time;durP1;ratioP1;P1;durP2;ratioP2;P2;SDS_P1;SDS_P2;PMS_P1;PMS_P2;Temp;Humidity;BMP_temperature;BMP_pressure;BME280_temperature;BME280_humidity;BME280_pressure;Samples;Min_cycle;Max_cycle;Signal;HPM_P1;HPM_P2
2023/05/17 00:01:33;;;;;;;9.23;2.85;;;9.90;99.90;;;;;;5016770;28;20026;-69
2023/05/17 00:03:59;;;;;;;11.15;2.55;;;9.90;99.90;;;;;;5016663;28;20033;-68
2023/05/17 00:06:24;;;;;;;7.38;2.78;;;9.90;99.90;;;;;;5016569;28;20406;-69
2023/05/17 00:08:50;;;;;;;15.40;3.03;;;9.90;99.90;;;;;;5016533;28;20045;-68
2023/05/17 00:11:16;;;;;;;16.60;2.63;;;9.90;99.90;;;;;;5016412;28;20030;-68
2023/05/17 00:13:41;;;;;;;9.23;2.50;;;10.00;99.90;;;;;;5033949;28;20038;-68
2023/05/17 00:16:07;;;;;;;8.68;2.17;;;10.00;99.90;;;;;;5033801;28;20045;-69
2023/05/17 00:18:33;;;;;;;10.43;3.10;;;10.00;99.90;;;;;;5034082;28;20034;-69
2023/05/17 00:20:58;;;;;;;9.48;2.72;;;10.00;99.90;;;;;;5033998;28;20375;-69
2023/05/17 00:23:24;;;;;;;10.50;3.03;;;10.00;99.90;;;;;;5033954;28;20048;-68
2023/05/17 00:25:50;;;;;;;18.15;3.00;;;10.00;99.90;;;;;;5033810;28;20037;-68
2023/05/17 00:28:15;;;;;;;11.20;3.28;;;9.90;99.90;;;;;;5033961;28;20040;-69
2023/05/17 00:30:41;;;;;;;9.52;2.95;;;9.90;99.90;;;;;;5033776;28;20025;-68
2023/05/17 00:33:07;;;;;;;15.02;2.88;;;9.80;99.90;;;;;;5033338;28;20067;-70
2023/05/17 00:35:33;;;;;;;6.95;2.42;;;9.80;99.90;;;;;;5033754;28;20032;-68
2023/05/17 00:37:58;;;;;;;8.88;2.85;;;9.80;99.90;;;;;;5033571;28;20497;-69
2023/05/17 00:40:24;;;;;;;6.20;2.75;;;9.80;99.90;;;;;;5033668;28;20060;-69
2023/05/17 00:42:51;;;;;;;10.30;2.90;;;9.80;99.90;;;;;;5033538;28;20018;-69
2023/05/17 00:45:17;;;;;;;10.32;2.63;;;9.90;99.90;;;;;;5020126;28;20045;-69
2023/05/17 00:47:42;;;;;;;14.05;3.42;;;9.80;99.90;;;;;;5015755;28;20030;-69
2023/05/17 00:50:08;;;;;;;9.90;3.33;;;9.80;99.90;;;;;;5030926;28;20034;-68
2023/05/17 00:52:35;;;;;;;15.27;2.67;;;9.80;99.90;;;;;;5030996;28;20383;-68
2023/05/17 00:55:01;;;;;;;10.35;2.75;;;9.80;99.90;;;;;;5030917;28;20018;-68
2023/05/17 00:57:28;;;;;;;10.88;3.05;;;9.80;99.90;;;;;;5015692;28;20113;-68
2023/05/17 00:59:55;;;;;;;11.87;2.43;;;9.90;99.90;;;;;;5015632;28;20053;-68
2023/05/17 01:02:21;;;;;;;13.60;3.20;;;9.90;99.90;;;;;;5015434;28;20022;-69
2023/05/17 01:04:48;;;;;;;11.68;2.45;;;10.00;99.90;;;;;;5015147;28;20033;-69
2023/05/17 01:07:14;;;;;;;5.35;1.95;;;10.00;99.90;;;;;;5015428;28;20033;-69
2023/05/17 01:09:42;;;;;;;5.75;2.13;;;10.00;99.90;;;;;;5015497;28;20022;-68
2023/05/17 01:12:44;;;;;;;6.47;2.60;;;10.00;99.90;;;;;;5012577;28;20034;-69
2023/05/17 01:15:20;;;;;;;14.23;3.13;;;10.10;99.90;;;;;;5015223;28;20494;-69
2023/05/17 01:18:07;;;;;;;7.55;2.70;;;10.10;99.90;;;;;;5015404;28;20398;-69
2023/05/17 01:20:37;;;;;;;11.48;3.20;;;10.10;99.90;;;;;;5015246;28;20030;-68
2023/05/17 01:23:40;;;;;;;15.20;2.85;;;10.20;99.90;;;;;;5015218;28;20018;-68
2023/05/17 01:26:14;;;;;;;5.30;2.50;;;10.20;99.90;;;;;;5014973;28;20037;-69
2023/05/17 01:28:42;;;;;;;9.38;3.15;;;10.20;99.90;;;;;;5015149;28;20471;-69
2023/05/17 01:31:09;;;;;;;11.90;2.92;;;10.20;99.90;;;;;;5015065;28;20109;-69
2023/05/17 01:33:36;;;;;;;18.58;3.72;;;10.30;99.90;;;;;;5015017;28;20025;-68
2023/05/17 01:36:02;;;;;;;18.30;3.63;;;10.30;99.90;;;;;;5014955;28;20474;-68
2023/05/17 01:38:27;;;;;;;7.95;2.40;;;10.40;99.90;;;;;;5014798;28;20026;-69
2023/05/17 01:41:07;;;;;;;19.65;3.17;;;10.40;99.90;;;;;;5014889;28;20030;-68
2023/05/17 01:43:41;;;;;;;5.90;2.72;;;10.40;99.90;;;;;;5030090;28;20022;-70
2023/05/17 01:46:25;;;;;;;19.98;2.67;;;10.40;99.90;;;;;;5014649;28;20034;-69
2023/05/17 01:48:59;;;;;;;7.70;2.85;;;10.40;99.90;;;;;;5014676;28;20021;-69
2023/05/17 01:51:32;;;;;;;8.57;3.08;;;10.40;99.90;;;;;;5014711;28;20060;-69
2023/05/17 01:54:04;;;;;;;16.08;2.72;;;10.40;99.90;;;;;;5014904;28;20493;-68
2023/05/17 01:56:33;;;;;;;14.02;3.08;;;10.50;99.90;;;;;;5014310;28;20573;-69
2023/05/17 01:59:03;;;;;;;19.17;3.33;;;10.50;99.90;;;;;;5014000;28;20025;-70
2023/05/17 02:01:30;;;;;;;9.90;2.70;;;10.50;99.90;;;;;;5014381;28;20025;-68
2023/05/17 02:03:57;;;;;;;17.10;2.80;;;10.50;99.90;;;;;;5014461;28;20034;-68
2023/05/17 02:06:22;;;;;;;15.38;4.22;;;10.50;99.90;;;;;;5014280;28;20030;-70
2023/05/17 02:08:48;;;;;;;9.57;3.00;;;10.50;99.90;;;;;;5014621;28;20033;-68
2023/05/17 02:11:14;;;;;;;8.40;2.78;;;10.40;99.90;;;;;;5014212;28;20380;-69
2023/05/17 02:13:39;;;;;;;13.07;4.32;;;10.40;99.90;;;;;;5014281;28;20502;-70
2023/05/17 02:16:05;;;;;;;21.40;3.45;;;10.40;99.90;;;;;;5013997;28;20409;-68
2023/05/17 02:18:34;;;;;;;11.43;3.05;;;10.40;99.90;;;;;;5014237;28;20028;-68
2023/05/17 02:21:00;;;;;;;17.80;3.63;;;10.40;99.90;;;;;;5013811;28;20077;-68
2023/05/17 02:23:26;;;;;;;13.90;2.85;;;10.40;99.90;;;;;;5012103;28;20061;-69
2023/05/17 02:25:51;;;;;;;11.90;3.22;;;10.40;99.90;;;;;;5014045;28;20018;-69
2023/05/17 02:28:17;;;;;;;13.35;2.97;;;10.30;99.90;;;;;;5029251;28;20021;-69
2023/05/17 02:30:44;;;;;;;9.07;2.63;;;10.30;99.90;;;;;;5013989;28;20504;-69
2023/05/17 02:33:10;;;;;;;13.63;2.33;;;10.30;99.90;;;;;;5029194;28;20018;-69
2023/05/17 02:35:36;;;;;;;12.85;3.28;;;10.20;99.90;;;;;;5013878;28;20028;-68
2023/05/17 02:38:01;;;;;;;17.10;3.15;;;10.10;99.90;;;;;;5013736;28;20076;-69
2023/05/17 02:40:27;;;;;;;14.15;3.10;;;10.10;99.90;;;;;;5013810;28;20510;-68
2023/05/17 02:42:52;;;;;;;18.13;2.90;;;10.10;99.90;;;;;;5013800;28;20029;-68
2023/05/17 02:45:18;;;;;;;7.88;2.47;;;10.20;99.90;;;;;;5013728;28;20060;-69
2023/05/17 02:47:44;;;;;;;20.02;3.75;;;10.20;99.90;;;;;;5013620;28;20026;-69
2023/05/17 02:50:09;;;;;;;14.48;3.25;;;10.10;99.90;;;;;;5013637;28;20025;-68
2023/05/17 02:52:35;;;;;;;12.48;3.20;;;10.20;99.90;;;;;;5013679;28;20113;-68
2023/05/17 02:55:03;;;;;;;7.47;3.15;;;10.10;99.90;;;;;;5013541;28;20030;-69
2023/05/17 02:57:28;;;;;;;;;;;10.10;99.90;;;;;;5014045;28;20037;-68
2023/05/17 02:59:54;;;;;;;14.10;3.03;;;10.10;99.90;;;;;;5013501;28;19905;-67
2023/05/17 03:02:20;;;;;;;12.98;3.00;;;10.10;99.90;;;;;;5013505;28;20033;-69
2023/05/17 03:04:47;;;;;;;12.95;3.50;;;10.10;99.90;;;;;;5013408;28;20037;-69
2023/05/17 03:07:12;;;;;;;15.52;2.78;;;10.10;99.90;;;;;;5013404;28;20111;-69
2023/05/17 03:09:38;;;;;;;16.25;4.07;;;10.00;99.90;;;;;;5012943;28;20058;-68
2023/05/17 03:12:05;;;;;;;10.52;2.65;;;10.00;99.90;;;;;;5028018;28;20072;-69
2023/05/17 03:14:30;;;;;;;15.10;3.47;;;10.00;99.90;;;;;;5013128;28;20014;-68
2023/05/17 03:16:56;;;;;;;25.05;4.43;;;10.00;99.90;;;;;;5013319;28;20038;-69
2023/05/17 03:19:21;;;;;;;23.65;4.05;;;10.00;99.90;;;;;;5013274;28;20026;-67
2023/05/17 03:21:47;;;;;;;9.20;3.05;;;10.00;99.90;;;;;;5013264;28;20030;-68
2023/05/17 03:24:13;;;;;;;19.63;3.45;;;10.10;99.90;;;;;;5012866;28;20509;-69
2023/05/17 03:26:38;;;;;;;13.70;3.90;;;10.10;99.90;;;;;;5013062;28;20371;-68
2023/05/17 03:29:04;;;;;;;8.77;2.70;;;10.10;99.90;;;;;;5012834;28;20030;-68
2023/05/17 03:31:30;;;;;;;7.97;3.28;;;10.10;99.90;;;;;;5028317;28;20108;-68
2023/05/17 03:33:55;;;;;;;11.60;2.70;;;10.10;99.90;;;;;;5013060;28;20025;-69
2023/05/17 03:36:21;;;;;;;17.48;2.80;;;10.10;99.90;;;;;;5013009;28;20025;-69
2023/05/17 03:38:46;;;;;;;7.60;3.13;;;10.20;99.90;;;;;;5012935;28;20037;-69
2023/05/17 03:41:12;;;;;;;18.13;3.45;;;10.20;99.90;;;;;;5013043;28;20483;-69
2023/05/17 03:43:38;;;;;;;21.70;2.63;;;10.20;99.90;;;;;;5012992;28;20025;-69
2023/05/17 03:46:04;;;;;;;21.38;2.75;;;10.20;99.90;;;;;;5012900;28;20056;-68
2023/05/17 03:48:30;;;;;;;9.93;2.65;;;10.20;99.90;;;;;;5011184;28;20026;-68
2023/05/17 03:50:55;;;;;;;9.55;2.03;;;10.20;99.90;;;;;;5028153;28;20033;-69
2023/05/17 03:53:21;;;;;;;15.60;2.25;;;10.20;99.90;;;;;;5012874;28;20021;-69
2023/05/17 03:55:47;;;;;;;14.32;3.03;;;10.20;99.90;;;;;;5028093;28;20025;-69
2023/05/17 03:58:12;;;;;;;21.13;2.70;;;10.20;99.90;;;;;;5012878;28;20470;-69
2023/05/17 04:00:38;;;;;;;14.15;3.08;;;10.20;99.90;;;;;;5027983;28;20103;-68
2023/05/17 04:03:04;;;;;;;9.90;1.73;;;10.10;99.90;;;;;;5012812;28;20062;-69
2023/05/17 04:05:29;;;;;;;5.85;1.95;;;10.20;99.90;;;;;;5012511;28;20056;-68
2023/05/17 04:07:55;;;;;;;13.90;2.25;;;10.20;99.90;;;;;;5012746;28;20030;-68
2023/05/17 04:10:21;;;;;;;12.30;1.73;;;10.20;99.90;;;;;;5012737;28;20022;-69
2023/05/17 04:12:46;;;;;;;15.35;1.90;;;10.20;99.90;;;;;;5027983;28;20036;-68
2023/05/17 04:15:12;;;;;;;12.20;2.55;;;10.20;99.90;;;;;;5012458;28;20042;-69
2023/05/17 04:17:38;;;;;;;9.00;1.80;;;10.20;99.90;;;;;;5027954;28;20026;-70
2023/05/17 04:20:05;;;;;;;14.95;2.90;;;10.20;99.90;;;;;;5027918;28;20030;-69
2023/05/17 04:22:31;;;;;;;9.65;1.70;;;10.20;99.90;;;;;;5013665;28;20040;-69
2023/05/17 04:24:57;;;;;;;13.57;2.90;;;10.20;99.90;;;;;;5016349;28;20038;-68
2023/05/17 04:27:23;;;;;;;8.00;2.17;;;10.20;99.90;;;;;;5016323;28;20038;-69
2023/05/17 04:29:48;;;;;;;13.38;2.35;;;10.30;99.90;;;;;;5016336;28;20178;-69
2023/05/17 04:32:15;;;;;;;13.05;1.85;;;10.30;99.90;;;;;;5016207;28;20025;-69
2023/05/17 04:34:42;;;;;;;13.88;1.60;;;10.30;99.90;;;;;;5015847;28;20033;-68
2023/05/17 04:37:07;;;;;;;9.93;2.03;;;10.30;99.90;;;;;;5031540;28;20479;-70
2023/05/17 04:39:33;;;;;;;14.00;1.73;;;10.40;99.90;;;;;;5015796;28;20120;-68
2023/05/17 04:41:59;;;;;;;12.32;1.85;;;10.40;99.90;;;;;;5016362;28;20034;-68
2023/05/17 04:44:25;;;;;;;8.35;1.92;;;10.40;99.90;;;;;;5018423;28;20036;-68
2023/05/17 04:46:51;;;;;;;6.93;1.60;;;10.40;99.90;;;;;;5015872;28;20398;-70
2023/05/17 04:49:18;;;;;;;9.82;1.67;;;10.40;99.90;;;;;;5015909;28;20453;-69
2023/05/17 04:51:44;;;;;;;6.80;1.80;;;10.50;99.90;;;;;;5015849;28;20034;-69
2023/05/17 04:54:09;;;;;;;4.53;1.98;;;10.50;99.90;;;;;;5015786;28;20109;-69
2023/05/17 04:56:35;;;;;;;19.13;1.92;;;10.50;99.90;;;;;;5015765;28;20034;-69
2023/05/17 04:59:02;;;;;;;23.15;3.25;;;10.50;99.90;;;;;;5015762;28;20446;-69
2023/05/17 05:01:29;;;;;;;7.38;1.65;;;10.40;99.90;;;;;;5015786;28;20508;-70
2023/05/17 05:03:56;;;;;;;12.93;1.80;;;10.50;99.90;;;;;;5015711;28;20028;-68
2023/05/17 05:06:22;;;;;;;6.22;1.45;;;10.50;99.90;;;;;;5015555;28;20029;-69
2023/05/17 05:08:48;;;;;;;7.80;1.85;;;10.60;99.90;;;;;;5030940;28;20033;-70
2023/05/17 05:11:13;;;;;;;15.07;2.35;;;10.60;99.90;;;;;;5015423;28;20477;-70
2023/05/17 05:13:40;;;;;;;18.40;2.47;;;10.60;99.90;;;;;;5015510;28;20105;-70
2023/05/17 05:16:06;;;;;;;15.93;1.65;;;10.60;99.90;;;;;;5015364;28;20530;-70
2023/05/17 05:18:32;;;;;;;14.32;2.40;;;10.60;99.90;;;;;;5015429;28;20026;-70
2023/05/17 05:20:58;;;;;;;13.35;1.63;;;10.60;99.90;;;;;;5030676;28;20029;-69
2023/05/17 05:23:24;;;;;;;14.23;1.98;;;10.60;99.90;;;;;;5015502;28;20566;-71
2023/05/17 05:25:49;;;;;;;12.25;2.53;;;10.50;99.90;;;;;;5015206;28;20148;-69
2023/05/17 05:28:15;;;;;;;7.20;2.08;;;10.50;99.90;;;;;;5030521;28;20411;-70
2023/05/17 05:30:41;;;;;;;10.80;2.75;;;10.50;99.90;;;;;;5015321;28;20034;-70
2023/05/17 05:33:07;;;;;;;15.93;2.88;;;10.60;99.90;;;;;;5014259;28;20033;-70
2023/05/17 05:35:32;;;;;;;11.40;1.63;;;10.70;99.90;;;;;;5015085;28;20030;-69
2023/05/17 05:37:58;;;;;;;21.77;2.20;;;10.90;99.90;;;;;;5030288;28;20080;-70
2023/05/17 05:40:24;;;;;;;9.98;1.55;;;11.50;99.90;;;;;;5014981;28;20048;-71
2023/05/17 05:42:51;;;;;;;12.07;1.85;;;12.00;99.90;;;;;;5015220;28;20490;-70
2023/05/17 05:45:17;;;;;;;15.15;2.90;;;11.90;99.90;;;;;;5014986;28;20474;-71
2023/05/17 05:47:43;;;;;;;7.60;2.45;;;11.70;99.90;;;;;;5014890;28;20030;-70
2023/05/17 05:50:09;;;;;;;16.30;2.38;;;11.40;99.90;;;;;;5015308;28;20029;-70
2023/05/17 05:52:35;;;;;;;12.20;2.00;;;11.30;99.90;;;;;;5015089;28;20467;-69
2023/05/17 05:55:01;;;;;;;4.80;1.55;;;11.30;99.90;;;;;;5014864;28;20022;-70
2023/05/17 05:57:26;;;;;;;20.52;1.92;;;11.20;99.90;;;;;;5014828;28;20030;-69
2023/05/17 05:59:52;;;;;;;10.50;1.90;;;11.30;99.90;;;;;;5014784;28;20052;-70
2023/05/17 06:02:18;;;;;;;8.85;1.20;;;11.30;99.90;;;;;;5014717;28;20512;-70
2023/05/17 06:04:46;;;;;;;11.52;2.72;;;11.30;99.90;;;;;;5014638;28;20390;-70
2023/05/17 06:07:13;;;;;;;20.35;2.45;;;11.20;99.90;;;;;;5014798;28;20029;-70
2023/05/17 06:09:39;;;;;;;22.40;2.65;;;11.40;99.90;;;;;;5014723;28;20026;-70
2023/05/17 06:12:04;;;;;;;13.00;1.70;;;11.60;99.90;;;;;;5009053;28;20024;-69
2023/05/17 06:14:30;;;;;;;8.88;2.67;;;11.70;99.90;;;;;;5014487;28;20026;-69
2023/05/17 06:16:55;;;;;;;13.27;1.95;;;11.80;99.90;;;;;;5014439;28;20498;-70
2023/05/17 06:19:21;;;;;;;12.35;1.67;;;11.90;99.90;;;;;;5014665;28;20032;-70
2023/05/17 06:21:47;;;;;;;11.18;1.42;;;12.00;99.90;;;;;;5014252;28;20022;-70
2023/05/17 06:24:12;;;;;;;8.85;1.50;;;11.90;99.90;;;;;;5029493;28;20121;-70
2023/05/17 06:26:39;;;;;;;10.15;1.92;;;12.00;99.90;;;;;;5014164;28;20397;-70
2023/05/17 06:29:05;;;;;;;14.40;1.73;;;12.00;99.90;;;;;;5014285;28;20018;-70
2023/05/17 06:31:30;;;;;;;10.02;1.90;;;12.00;99.90;;;;;;5014177;28;20033;-70
2023/05/17 06:33:56;;;;;;;8.63;1.83;;;11.80;99.90;;;;;;5014097;28;20375;-69
2023/05/17 06:36:22;;;;;;;10.20;1.25;;;11.80;99.90;;;;;;5013897;28;20033;-69
2023/05/17 06:38:48;;;;;;;13.82;1.30;;;11.80;99.90;;;;;;5029024;28;20026;-70
2023/05/17 06:41:13;;;;;;;10.13;1.92;;;12.00;99.90;;;;;;5014039;28;20030;-69
2023/05/17 06:43:39;;;;;;;5.57;1.17;;;11.90;99.90;;;;;;5014097;28;20026;-69
2023/05/17 06:46:05;;;;;;;11.63;1.52;;;11.80;99.90;;;;;;5013752;28;20525;-70
2023/05/17 06:48:30;;;;;;;12.25;1.45;;;12.00;99.90;;;;;;5013945;28;20018;-69
2023/05/17 06:50:56;;;;;;;6.07;0.95;;;12.20;99.90;;;;;;5013825;28;20113;-69
2023/05/17 06:53:22;;;;;;;5.95;1.27;;;12.90;99.90;;;;;;5029512;28;20022;-71
2023/05/17 06:55:47;;;;;;;22.10;3.42;;;13.50;99.90;;;;;;5029016;28;20034;-70
2023/05/17 06:58:13;;;;;;;5.82;1.15;;;14.00;99.90;;;;;;5013899;28;20046;-70
2023/05/17 07:00:39;;;;;;;7.90;1.27;;;14.20;99.90;;;;;;5013765;28;20022;-70
2023/05/17 07:03:04;;;;;;;11.32;1.00;;;15.00;99.90;;;;;;5013602;28;20018;-70
2023/05/17 07:05:30;;;;;;;10.48;1.80;;;15.70;99.90;;;;;;5013511;28;20060;-69
2023/05/17 07:07:57;;;;;;;7.53;1.23;;;15.20;99.90;;;;;;5013379;28;20548;-69
2023/05/17 07:10:23;;;;;;;6.50;1.15;;;15.00;99.90;;;;;;5013353;28;20021;-69
2023/05/17 07:12:48;;;;;;;10.15;1.45;;;14.60;99.90;;;;;;5013438;28;20085;-69
2023/05/17 07:15:14;;;;;;;6.95;1.55;;;14.90;99.90;;;;;;5028181;28;20076;-69
2023/05/17 07:17:40;;;;;;;15.48;1.15;;;15.10;99.90;;;;;;5013269;28;20064;-69
2023/05/17 07:20:06;;;;;;;4.80;1.10;;;15.00;99.90;;;;;;5013260;28;20044;-69
2023/05/17 07:22:32;;;;;;;7.10;1.40;;;15.10;99.90;;;;;;5013262;28;20038;-68
2023/05/17 07:24:58;;;;;;;6.63;1.10;;;15.00;99.90;;;;;;5028435;28;20030;-68
2023/05/17 07:27:23;;;;;;;7.80;1.80;;;14.60;99.90;;;;;;5013129;28;20026;-68
2023/05/17 07:29:49;;;;;;;12.52;0.95;;;14.20;99.90;;;;;;5013211;28;20026;-68
2023/05/17 07:32:16;;;;;;;5.82;1.38;;;13.80;99.90;;;;;;5013123;28;20033;-68
2023/05/17 07:34:42;;;;;;;7.13;1.13;;;13.60;99.90;;;;;;5013141;28;20394;-68
2023/05/17 07:37:08;;;;;;;7.90;1.15;;;13.20;99.90;;;;;;5013038;28;20084;-68
2023/05/17 07:39:33;;;;;;;1.63;1.15;;;12.80;99.90;;;;;;5028094;28;20034;-69
2023/05/17 07:41:59;;;;;;;6.78;0.77;;;12.70;99.90;;;;;;5013028;28;20033;-69
2023/05/17 07:44:25;;;;;;;4.55;0.80;;;12.80;99.90;;;;;;5013007;28;20437;-69
2023/05/17 07:46:50;;;;;;;11.60;1.38;;;12.90;99.90;;;;;;5012902;28;20081;-69
2023/05/17 07:49:16;;;;;;;6.57;1.23;;;13.10;99.90;;;;;;5012967;28;20076;-69
2023/05/17 07:51:42;;;;;;;5.95;1.52;;;13.10;99.90;;;;;;5028255;28;20033;-68
2023/05/17 07:54:08;;;;;;;7.15;0.88;;;13.30;99.90;;;;;;5012875;28;20022;-68
2023/05/17 07:56:33;;;;;;;7.90;0.95;;;13.30;99.90;;;;;;5013703;28;20073;-70
2023/05/17 07:58:59;;;;;;;6.18;1.30;;;13.40;99.90;;;;;;5016813;28;20041;-70
2023/05/17 08:01:25;;;;;;;3.20;1.02;;;13.40;99.90;;;;;;5016711;28;20557;-69
2023/05/17 08:03:51;;;;;;;3.10;0.80;;;13.40;99.90;;;;;;5016732;28;20505;-68
2023/05/17 08:06:17;;;;;;;4.43;0.95;;;13.20;99.90;;;;;;5016572;28;20033;-69
2023/05/17 08:08:43;;;;;;;3.95;0.95;;;13.00;99.90;;;;;;5016724;28;20030;-68
2023/05/17 08:11:10;;;;;;;12.13;2.50;;;13.10;99.90;;;;;;5016511;28;20393;-68
2023/05/17 08:13:36;;;;;;;6.93;1.13;;;13.10;99.90;;;;;;5016653;28;20114;-69
2023/05/17 08:16:02;;;;;;;2.92;0.90;;;13.30;99.90;;;;;;5016350;28;20077;-68
2023/05/17 08:18:31;;;;;;;7.50;0.98;;;13.30;99.90;;;;;;5016531;28;20026;-70
2023/05/17 08:20:57;;;;;;;7.80;1.20;;;13.60;99.90;;;;;;5016426;28;20045;-69
2023/05/17 08:23:23;;;;;;;9.38;0.82;;;13.70;99.90;;;;;;5016450;28;20034;-69
2023/05/17 08:25:48;;;;;;;4.57;0.70;;;13.60;99.90;;;;;;5016269;28;20481;-69
2023/05/17 08:28:14;;;;;;;3.40;0.70;;;13.40;99.90;;;;;;5016316;28;20033;-69
2023/05/17 08:30:40;;;;;;;7.85;0.80;;;13.60;99.90;;;;;;5016534;28;20034;-69
2023/05/17 08:33:08;;;;;;;1.45;0.50;;;13.90;99.90;;;;;;5016234;28;20038;-69
2023/05/17 08:35:34;;;;;;;4.93;1.38;;;13.90;99.90;;;;;;5016182;28;20030;-69
2023/05/17 08:38:00;;;;;;;9.20;1.33;;;14.10;99.90;;;;;;5016105;28;20034;-70
2023/05/17 08:40:26;;;;;;;2.63;0.70;;;14.30;99.90;;;;;;5016054;28;20405;-69
2023/05/17 08:42:52;;;;;;;6.18;1.30;;;14.50;99.90;;;;;;5031215;28;20041;-70
2023/05/17 08:45:18;;;;;;;2.10;0.80;;;14.30;99.90;;;;;;5015924;28;20034;-70
2023/05/17 08:47:45;;;;;;;4.68;1.27;;;14.40;99.90;;;;;;5015811;28;20029;-69
2023/05/17 08:50:11;;;;;;;3.00;0.90;;;14.40;99.90;;;;;;5015901;28;20022;-70
2023/05/17 08:52:39;;;;;;;1.55;0.57;;;14.10;99.90;;;;;;5015865;28;20030;-69
2023/05/17 08:55:07;;;;;;;5.43;0.60;;;14.20;99.90;;;;;;5015786;28;20483;-69
2023/05/17 08:57:35;;;;;;;;;;;14.40;99.90;;;;;;5016188;28;20109;-69
2023/05/17 09:00:13;;;;;;;2.35;0.40;;;14.40;99.90;;;;;;5015625;28;20000;-69
2023/05/17 09:02:41;;;;;;;8.88;1.10;;;14.40;99.90;;;;;;5015962;28;20036;-69
2023/05/17 09:05:08;;;;;;;4.20;0.73;;;14.30;99.90;;;;;;5015626;28;20080;-69
2023/05/17 09:07:34;;;;;;;5.50;1.35;;;14.50;99.90;;;;;;5014694;28;20038;-69
2023/05/17 09:10:02;;;;;;;2.70;0.95;;;14.70;99.90;;;;;;5014638;28;20097;-69
2023/05/17 09:12:28;;;;;;;2.22;1.20;;;15.00;99.90;;;;;;5015487;28;20034;-69
2023/05/17 09:15:14;;;;;;;5.10;1.02;;;15.40;99.90;;;;;;5015468;28;20075;-69
2023/05/17 09:17:41;;;;;;;3.95;1.35;;;15.70;99.90;;;;;;5014135;28;20049;-70
2023/05/17 09:20:07;;;;;;;5.05;1.13;;;14.60;99.90;;;;;;5030517;28;20034;-68
2023/05/17 09:22:35;;;;;;;7.75;1.05;;;14.60;99.90;;;;;;5015339;28;20117;-69
2023/05/17 09:25:03;;;;;;;3.45;1.10;;;14.90;99.90;;;;;;5015470;28;20564;-69
2023/05/17 09:27:30;;;;;;;8.77;1.02;;;14.50;99.90;;;;;;5015224;28;20033;-69
2023/05/17 09:29:57;;;;;;;7.13;1.03;;;14.10;99.90;;;;;;5015082;28;20058;-70
2023/05/17 09:32:23;;;;;;;1.85;0.65;;;13.70;99.90;;;;;;5015131;28;20025;-69
2023/05/17 09:34:55;;;;;;;5.38;0.80;;;13.60;99.90;;;;;;5014996;28;20032;-70
2023/05/17 09:37:22;;;;;;;9.30;1.15;;;13.50;99.90;;;;;;5014965;28;20490;-69
2023/05/17 09:39:47;;;;;;;4.53;0.60;;;13.70;99.90;;;;;;5014997;28;20034;-69
2023/05/17 09:42:15;;;;;;;6.82;0.90;;;14.10;99.90;;;;;;5030158;28;20116;-69
2023/05/17 09:44:56;;;;;;;11.93;1.13;;;14.20;99.90;;;;;;5030039;28;20029;-68
2023/05/17 09:47:27;;;;;;;4.20;1.20;;;14.30;99.90;;;;;;5014708;28;20072;-68
2023/05/17 09:50:03;;;;;;;4.35;0.65;;;14.30;99.90;;;;;;5014834;28;20564;-69
2023/05/17 09:52:30;;;;;;;3.78;0.60;;;14.30;99.90;;;;;;5014872;28;20072;-68
2023/05/17 09:54:58;;;;;;;5.07;1.38;;;14.30;99.90;;;;;;5014781;28;20556;-68
2023/05/17 09:57:27;;;;;;;4.90;1.15;;;14.50;99.90;;;;;;5013457;28;20029;-69
2023/05/17 09:59:56;;;;;;;6.93;0.98;;;14.50;99.90;;;;;;5014687;28;20045;-69
2023/05/17 10:02:31;;;;;;;6.65;0.82;;;14.60;99.90;;;;;;5029789;28;20096;-69
2023/05/17 10:04:57;;;;;;;3.55;0.55;;;14.70;99.90;;;;;;5029359;28;20040;-69
2023/05/17 10:07:25;;;;;;;2.03;0.70;;;15.00;99.90;;;;;;5014406;28;20033;-69
2023/05/17 10:09:54;;;;;;;8.43;0.90;;;15.40;99.90;;;;;;5029603;28;20080;-69
2023/05/17 10:12:26;;;;;;;2.42;0.60;;;15.80;99.90;;;;;;5014334;28;20029;-69
2023/05/17 10:14:55;;;;;;;2.97;1.23;;;15.80;99.90;;;;;;5014357;28;20548;-69
2023/05/17 10:17:22;;;;;;;3.95;1.05;;;15.80;99.90;;;;;;5029166;28;20046;-70
2023/05/17 10:19:48;;;;;;;9.20;0.83;;;15.50;99.90;;;;;;5013800;28;20029;-68
2023/05/17 10:22:15;;;;;;;2.65;0.60;;;15.70;99.90;;;;;;5014187;28;20555;-69
2023/05/17 10:24:42;;;;;;;4.70;1.05;;;15.70;99.90;;;;;;5014134;28;20037;-69
2023/05/17 10:27:09;;;;;;;3.70;0.82;;;15.80;99.90;;;;;;5014081;28;20033;-68
2023/05/17 10:29:37;;;;;;;2.83;0.75;;;15.70;99.90;;;;;;5014122;28;20022;-69
2023/05/17 10:32:11;;;;;;;7.97;1.20;;;15.60;99.60;;;;;;5014333;28;20029;-70
2023/05/17 10:34:38;;;;;;;3.03;0.95;;;15.70;99.80;;;;;;5014040;28;20030;-69
2023/05/17 10:37:04;;;;;;;7.43;0.75;;;15.60;99.90;;;;;;5012657;28;20486;-69
2023/05/17 10:39:33;;;;;;;7.85;1.20;;;15.70;99.90;;;;;;5013616;28;20037;-69
2023/05/17 10:42:02;;;;;;;2.33;0.80;;;15.60;99.60;;;;;;5028999;28;20112;-68
2023/05/17 10:44:31;;;;;;;9.68;1.27;;;15.60;99.90;;;;;;5013824;28;20073;-69
2023/05/17 10:46:59;;;;;;;10.48;0.90;;;15.70;99.90;;;;;;5014093;28;20030;-70
2023/05/17 10:49:31;;;;;;;1.85;0.70;;;15.60;99.90;;;;;;5013813;28;20093;-70
2023/05/17 10:52:16;;;;;;;7.90;0.95;;;15.40;99.90;;;;;;5013647;28;20494;-70
2023/05/17 10:54:43;;;;;;;4.18;0.82;;;15.20;99.90;;;;;;5028895;28;20033;-70
2023/05/17 10:57:19;;;;;;;2.97;0.77;;;15.20;99.90;;;;;;5013694;28;20026;-70
2023/05/17 10:59:56;;;;;;;5.93;1.00;;;15.20;99.90;;;;;;5013859;28;20058;-69
2023/05/17 11:02:24;;;;;;;3.78;0.77;;;15.10;99.90;;;;;;5013701;28;20069;-69
2023/05/17 11:04:54;;;;;;;3.22;0.70;;;15.20;99.90;;;;;;5013527;28;20049;-70
2023/05/17 11:07:23;;;;;;;2.22;0.98;;;15.20;99.90;;;;;;5013502;28;20026;-70
2023/05/17 11:10:07;;;;;;;5.60;1.58;;;15.30;99.90;;;;;;5013374;28;20022;-69
2023/05/17 11:12:35;;;;;;;7.70;1.17;;;15.30;99.90;;;;;;5013321;28;20026;-69
2023/05/17 11:15:05;;;;;;;;;;;15.10;99.90;;;;;;5013684;28;20104;-68
2023/05/17 11:17:52;;;;;;;3.17;0.60;;;15.10;99.90;;;;;;5013283;28;19917;-69
2023/05/17 11:20:24;;;;;;;6.07;0.73;;;14.90;99.90;;;;;;5013333;28;20029;-69
2023/05/17 11:23:11;;;;;;;5.30;1.08;;;14.90;99.90;;;;;;5013348;28;20398;-69
2023/05/17 11:25:39;;;;;;;3.10;1.20;;;14.90;99.90;;;;;;5013259;28;20060;-69
2023/05/17 11:28:22;;;;;;;2.42;0.90;;;15.10;99.90;;;;;;5013107;28;20119;-69
2023/05/17 11:30:52;;;;;;;11.90;1.20;;;15.20;99.90;;;;;;5012681;28;20172;-68
2023/05/17 11:33:20;;;;;;;6.32;0.82;;;15.30;99.90;;;;;;5015318;28;20030;-69
2023/05/17 11:35:46;;;;;;;7.65;1.40;;;15.30;99.90;;;;;;5013330;28;20500;-69
2023/05/17 11:38:23;;;;;;;5.70;1.10;;;15.40;99.90;;;;;;5013267;28;20030;-69
2023/05/17 11:41:15;;;;;;;7.15;1.02;;;15.30;99.40;;;;;;5013184;28;20482;-69
2023/05/17 11:43:46;;;;;;;5.90;0.60;;;15.40;99.90;;;;;;5013121;28;20036;-69
2023/05/17 11:46:19;;;;;;;2.95;0.70;;;15.60;99.90;;;;;;5028456;28;20041;-69
2023/05/17 11:48:46;;;;;;;9.40;0.98;;;15.60;99.90;;;;;;5013163;28;20032;-69
2023/05/17 11:51:14;;;;;;;10.18;1.65;;;15.80;99.90;;;;;;5013054;28;20105;-69
2023/05/17 11:53:40;;;;;;;5.07;1.02;;;15.70;99.90;;;;;;5013019;28;20084;-69
2023/05/17 11:56:07;;;;;;;5.97;1.20;;;15.30;99.90;;;;;;5012965;28;20062;-68
2023/05/17 11:58:34;;;;;;;5.00;1.65;;;15.50;99.90;;;;;;5013270;28;20026;-69
2023/05/17 12:00:59;;;;;;;12.73;1.77;;;15.50;99.90;;;;;;5012620;28;20038;-69
2023/05/17 12:03:29;;;;;;;8.40;1.75;;;15.30;99.90;;;;;;5012919;28;20034;-70
2023/05/17 12:06:06;;;;;;;6.25;1.05;;;15.30;99.90;;;;;;5012882;28;20446;-70
2023/05/17 12:08:33;;;;;;;12.90;1.05;;;15.70;99.90;;;;;;5012839;28;20053;-69
2023/05/17 12:10:59;;;;;;;3.58;1.13;;;15.60;99.90;;;;;;5012698;28;20030;-69
2023/05/17 12:13:34;;;;;;;4.32;1.38;;;15.40;99.90;;;;;;5012803;28;20398;-68
2023/05/17 12:16:04;;;;;;;7.45;0.85;;;15.40;99.90;;;;;;5012618;28;20064;-69
2023/05/17 12:18:37;;;;;;;12.52;1.00;;;15.30;99.90;;;;;;5012786;28;20017;-69
2023/05/17 12:21:03;;;;;;;4.38;0.77;;;15.30;99.90;;;;;;5012669;28;20018;-69
2023/05/17 12:23:44;;;;;;;9.25;1.00;;;15.40;99.90;;;;;;5027770;28;20018;-69
2023/05/17 12:26:13;;;;;;;6.05;1.08;;;15.40;99.90;;;;;;5012495;28;20029;-69
2023/05/17 12:28:40;;;;;;;13.30;1.60;;;15.40;99.90;;;;;;5012693;28;20026;-69
2023/05/17 12:31:11;;;;;;;9.90;1.38;;;15.40;99.90;;;;;;5012635;28;20030;-69
2023/05/17 12:33:40;;;;;;;7.10;1.40;;;15.40;99.90;;;;;;5012567;28;20056;-70
2023/05/17 12:36:08;;;;;;;14.05;1.38;;;15.20;99.90;;;;;;5012526;28;20053;-69
2023/05/17 12:38:35;;;;;;;6.05;1.58;;;15.30;99.90;;;;;;5012435;28;20018;-70
2023/05/17 12:41:03;;;;;;;8.32;1.30;;;15.40;99.90;;;;;;5012486;28;20025;-68
2023/05/17 12:43:36;;;;;;;3.67;1.60;;;15.50;99.90;;;;;;5012625;28;20026;-69
2023/05/17 12:46:10;;;;;;;7.25;1.20;;;15.60;99.90;;;;;;5016017;28;20113;-69